Airfield :
LOGIN :

Register | Disclaimer

   EN    FR    IT 

 










Legend :    VFR   Marginal VFR   IFR   Intensive IFR   Very Intensive IFR
Visi :
Ceiling :
>= 8 km
>= 3000ft
5 to 8 km
1000 to 3000 ft
1500m to 5 km
500 to 1000 ft
800 to 1500m
200 to 500 ft
< 800m
< 200 ft
Symbols :   Thunderstorms  Fog  Heavy snow  Heavy precipitations  Wind > 20 kt
SIGMETs :     Misc.  Thunderstorms  Icing  Turbulence  Mountain Waves  Volcanic Ashes






- Airport Elevation : 179 ft
- IATA code : HEL


EFHK - Helsinki Vantaa

CURRENT METAR :
  • 091420Z 30015G25KT 270V350 9999 -SHRA SCT030CB 04/01 Q1008 BECMG SCT030

EXPIRED METARs :
  • 091350Z 28014KT 260V320 9999 VCSH FEW040CB 08/M05 Q1007 NOSIG
  • 091320Z 30016KT 9999 VCSH NSC 09/M04 Q1007 TEMPO FEW040CB
  • 091250Z 30017KT 9999 VCSH NSC 08/M05 Q1007 TEMPO FEW040CB
  • 091220Z 30017KT 9999 VCSH NSC 08/M05 Q1007 TEMPO FEW040CB
  • 091150Z 29015KT 260V320 CAVOK 09/M05 Q1006 TEMPO FEW040CB

TAF TAF EFHK
Valid from the 09 at 12:00 until the 10 at 12:00 UTC


091131Z 0912/1012 30017KT 9999 FEW040
TEMPO 0912/0917 31017G27KT FEW040CB
TEMPO 1003/1008 4000 -SHSN SCT020CB



MET'MAP, your aeronautical weather chart ! - Copyright ORBIFLY December 2007 - Disclaimer

ORBIFLY MET'MAP TEAM :

Programming & Development : Alexandra Zaïnal
Concept & original design : Baudouin d'Aumeries
Assistance for programming : Marc-Olivier Méhu
Technical & hardware support : Manuel Goepfert

Contact : metmap@orbifly.com




SOURCES & CREDITS :

   NOAA